Tuesday, January 27, 2015, 7:21 AM EST

KGED, Georgetown Sussex Co Airport

Location: Georgetown, DE, United States Lat: 38.683
Local Time: 7:21 AM EST (12:21 GMT) Lon: -75.367
Time Zone: US/Eastern Elev: 52 ft

Show me the last for .
Show Decoded

2015-01-27 06:54 METAR KGED 271154Z AUTO 35007G16KT 9SM BKN024 OVC043 M02/M07 A2971 RMK AO2
                 SNB09E19B36E53 SLP060 P0000 60000 70040 T10221067 11006 21022 53015 =
2015-01-27 06:05 METAR KGED 271105Z AUTO 36007G18KT 10SM BKN023 BKN031 OVC038 M02/M07 A2969 RMK
                 AO2 T10221072 =
2015-01-27 05:54 METAR KGED 271054Z AUTO 35012G19KT 10SM SCT023 BKN031 OVC038 M02/M07 A2968 RMK
                 AO2 SLP052 T10221072 =
2015-01-27 04:54 METAR KGED 270954Z AUTO 35013G17KT 10SM OVC019 M02/M06 A2967 RMK AO2 SLP049
                 T10221061 =
2015-01-27 03:54 METAR KGED 270854Z AUTO 35008G15KT 10SM BKN016 OVC031 M02/M05 A2966 RMK AO2
                 SNE0758 SLP044 P0000 60000 T10171050 51010 =
2015-01-27 03:08 METAR KGED 270808Z AUTO 36013G20KT 6SM HZ FEW012 BKN020 OVC031 M02/M04 A2966 RMK
                 AO2 SNE0758 P0000 T10171044 =
2015-01-27 02:54 METAR KGED 270754Z AUTO 35009KT 6SM -SN BKN014 OVC020 M02/M04 A2966 RMK AO2
                 SNE31B48 SLP044 P0000 T10171044 =
2015-01-27 02:32 METAR KGED 270732Z AUTO 34008KT 9SM OVC015 M02/M04 A2966 RMK AO2 SNE31 P0000
                 T10171044 =
2015-01-27 01:54 METAR KGED 270654Z AUTO 35010KT 4SM -SN BR OVC013 M02/M04 A2965 RMK AO2
                 SNB08E18B43 SLP041 P0000 T10171039 =
2015-01-27 01:24 METAR KGED 270624Z AUTO 35007G17KT 4SM HZ BKN014 OVC018 M01/M04 A2964 RMK AO2
                 SNB08E18 P0000 T10111039 =
2015-01-27 00:54 METAR KGED 270554Z AUTO 36011G16KT 10SM OVC016 M01/M03 A2963 RMK AO2 SNB31E41
                 SLP035 P0000 60000 T10061033 10006 21006 56005 =
2015-01-27 00:51 METAR KGED 270551Z AUTO 36010KT 10SM OVC014 M01/M03 A2963 RMK AO2 SNB31E41 P0000
                 =
2015-01-27 00:21 METAR KGED 270521Z AUTO 01010G17KT 10SM OVC015 00/M03 A2964 RMK AO2 T00001033 =
2015-01-26 23:54 METAR KGED 270454Z AUTO 01008G20KT 10SM OVC014 00/M03 A2964 RMK AO2 SNB13E25
                 SLP038 P0000 T00001033 400560000 =
2015-01-26 22:54 METAR KGED 270354Z AUTO 02012G20KT 10SM OVC013 00/M03 A2965 RMK AO2 SLP040
                 T00001028 =
2015-01-26 21:54 METAR KGED 270254Z AUTO 02013G20KT 10SM OVC011 00/M02 A2964 RMK AO2 PK WND
                 03026/0232 SLP037 T00001022 50001 =
2015-01-26 20:54 METAR KGED 270154Z AUTO 02014G21KT 10SM OVC010 00/M02 A2964 RMK AO2 PK WND
                 02026/0104 SLP038 T00001022 =
2015-01-26 20:40 METAR KGED 270140Z AUTO 02014G19KT 10SM OVC010 00/M02 A2964 RMK AO2 PK WND
                 02026/0104 T00001022 =
2015-01-26 19:54 METAR KGED 270054Z AUTO 02013G21KT 10SM OVC009 00/M02 A2964 RMK AO2 SLP037
                 T00001017 =
2015-01-26 18:54 METAR KGED 262354Z AUTO 02014G22KT 10SM OVC008 01/M01 A2964 RMK AO2 PK WND
                 01027/2330 RAE2259UPB2259E01 SLP036 P0000 60037 T00061011 10044 20006 51002 =
2015-01-26 17:54 METAR KGED 262254Z AUTO 02016G26KT 10SM -RA OVC007 01/00 A2964 RMK AO2 PK WND
                 02028/2211 RAE2155B37UPB2155E05B24E37 SLP036 P0001 T00110000 =
2015-01-26 16:54 METAR KGED 262154Z AUTO 02016G24KT 8SM -RA OVC006 02/01 A2963 RMK AO2 UPB30E37
                 SLP035 P0001 T00220006 =
2015-01-26 15:54 METAR KGED 262054Z AUTO 03016G26KT 4SM RA BR BKN009 OVC012 03/01 A2963 RMK AO2
                 PK WND 03027/2021 SLP034 P0012 60035 T00280011 56021 =
2015-01-26 15:12 METAR KGED 262012Z AUTO 02016G22KT 3SM RA BR BKN009 OVC029 03/02 A2964 RMK AO2
                 P0006 T00330022 =
2015-01-26 14:54 METAR KGED 261954Z AUTO 02015G22KT 2 1/2SM +RA BR BKN007 OVC011 03/02 A2963 RMK
                 AO2 SLP034 P0012 T00330022 =
2015-01-26 14:47 METAR KGED 261947Z AUTO 01015G24KT 2SM +RA BR BKN007 OVC011 03/02 A2963 RMK AO2
                 P0009 T00330022 =
2015-01-26 13:54 METAR KGED 261854Z AUTO 02012G20KT 5SM -RA BR BKN007 OVC015 04/02 A2966 RMK AO2
                 SLP045 P0011 T00390022 =
2015-01-26 13:48 METAR KGED 261848Z AUTO 02013G20KT 3SM -RA BR BKN007 BKN015 OVC020 04/02 A2966
                 RMK AO2 P0011 =
2015-01-26 13:44 METAR KGED 261844Z AUTO 02012KT 3SM -RA BR SCT007 BKN016 OVC027 04/02 A2967 RMK
                 AO2 P0010 T00390022 =
2015-01-26 13:24 METAR KGED 261824Z AUTO 03016G21KT 2SM +RA BR FEW006 BKN012 OVC039 04/03 A2966
                 RMK AO2 P0006 T00440028 =
2015-01-26 13:15 METAR KGED 261815Z AUTO 03014G20KT 2SM RA BR BKN009 BKN014 OVC031 04/03 A2967
                 RMK AO2 PRESFR P0004 T00440033 =
2015-01-26 12:54 METAR KGED 261754Z AUTO 03012KT 3SM -RA BR OVC008 04/03 A2969 RMK AO2 RAB20 CIG
                 007V011 SLP055 P0002 60003 T00440028 10050 20028 58029 =
2015-01-26 11:54 METAR KGED 261654Z AUTO 05012KT 10SM OVC009 05/03 A2973 RMK AO2 SLP069 T00500028
                 =
2015-01-26 11:38 METAR KGED 261638Z AUTO 04011G20KT 10SM OVC009 05/03 A2973 RMK AO2 T00500028 =
2015-01-26 10:54 METAR KGED 261554Z AUTO 04013G21KT 10SM OVC011 05/02 A2976 RMK AO2 SLP077
                 T00500022 =
2015-01-26 09:54 METAR KGED 261454Z AUTO 06014G22KT 10SM OVC013 04/02 A2978 RMK AO2 PK WND
                 04026/1415 SLP084 60001 T00390017 56020 =
2015-01-26 08:54 METAR KGED 261354Z AUTO 06015G20KT 10SM BKN013 OVC027 03/01 A2979 RMK AO2
                 RAE39UPB01E15B39E41 SLP088 P0001 T00330011 =
2015-01-26 08:43 METAR KGED 261343Z AUTO 05016G22KT 10SM BKN013 BKN027 OVC043 03/01 A2980 RMK AO2
                 RAE39UPB01E15B39E41 P0001 T00280011 =
2015-01-26 08:24 METAR KGED 261324Z AUTO 05017G23KT 8SM -RA SCT013 BKN020 OVC045 03/01 A2980 RMK
                 AO2 UPB01E15 P0001 T00280006 $ =
2015-01-26 07:54 METAR KGED 261254Z AUTO 05013G24KT 9SM -RA BKN014 BKN020 OVC038 03/00 A2983 RMK
                 AO2 RAB1155UPB48E52 SLP100 P0000 T00280000 =
2015-01-26 07:44 METAR KGED 261244Z AUTO 05016KT 10SM -RA BKN014 BKN027 OVC038 03/01 A2984 RMK
                 AO2 RAB1155 P0000 T00280006 =

Support USWX by starting your Amazon purchase here.